Terminal Aerodrome Forecast
Issued by NWS

Home | Current Version | Previous Version | Text Only | Print | Product List | Glossary On
Versions: 1 2 3 4 5 6 7 8 9 10 11 12 13
170
FTUS41 KAKQ 271131
TAFPHF
TAF
KPHF 271131Z 2712/2812 05005KT P6SM SCT060
     FM271500 07009KT P6SM FEW050
     FM280800 06005KT 5SM BR BKN015=

USA.gov is the U.S. government's official web portal to all federal, state and local government web resources and services.